Time;durP1;ratioP1;P1;durP2;ratioP2;P2;SDS_P1;SDS_P2;PMS_P1;PMS_P2;Temp;Humidity;BMP_temperature;BMP_pressure;BME280_temperature;BME280_humidity;BME280_pressure;Samples;Min_cycle;Max_cycle;Signal;HPM_P1;HPM_P2
2023/04/24 00:01:13;;;;;;;;;;;;;;;;;;5074691;28;833;-69
2023/04/24 00:03:38;;;;;;;;;;;;;;;;;;5075714;28;872;-69
2023/04/24 00:06:05;;;;;;;;;;;;;;;;;;5056840;28;1233;-69
2023/04/24 00:08:30;;;;;;;;;;;;;;;;;;5073735;28;1431;-69
2023/04/24 00:10:56;;;;;;;;;;;;;;;;;;5074937;28;742;-69
2023/04/24 00:13:21;;;;;;;;;;;;;;;;;;5057317;28;1231;-69
2023/04/24 00:15:47;;;;;;;;;;;;;;;;;;5074982;28;971;-69
2023/04/24 00:18:12;;;;;;;;;;;;;;;;;;5074949;28;877;-69
2023/04/24 00:20:37;;;;;;;;;;;;;;;;;;5073518;28;1902;-69
2023/04/24 00:23:03;;;;;;;;;;;;;;;;;;5056529;28;1197;-69
2023/04/24 00:25:28;;;;;;;;;;;;;;;;;;5074584;28;884;-69
2023/04/24 00:27:53;;;;;;;;;;;;;;;;;;5056589;28;1202;-69
2023/04/24 00:30:19;;;;;;;;;;;;;;;;;;5074712;28;852;-69
2023/04/24 00:32:44;;;;;;;;;;;;;;;;;;5073532;28;1292;-69
2023/04/24 00:35:10;;;;;;;;;;;;;;;;;;5074671;28;889;-68
2023/04/24 00:37:35;;;;;;;;;;;;;;;;;;5073225;28;1438;-68
2023/04/24 00:40:01;;;;;;;;;;;;;;;;;;5072742;28;1964;-69
2023/04/24 00:42:26;;;;;;;;;;;;;;;;;;5056225;28;1287;-68
2023/04/24 00:44:52;;;;;;;;;;;;;;;;;;5072896;28;1352;-68
2023/04/24 00:47:18;;;;;;;;;;;;;;;;;;5074482;28;848;-69
2023/04/24 00:49:44;;;;;;;;;;;;;;;;;;5073361;28;1140;-69
2023/04/24 00:52:09;;;;;;;;;;;;;;;;;;5072813;28;848;-69
2023/04/24 00:54:35;;;;;;;;;;;;;;;;;;5056500;28;1251;-69
2023/04/24 00:57:01;;;;;;;;;;;;;;;;;;5074602;28;904;-69
2023/04/24 00:59:26;;;;;;;;;;;;;;;;;;5073122;28;1988;-69
2023/04/24 01:01:52;;;;;;;;;;;;;;;;;;5074194;28;875;-69
2023/04/24 01:04:17;;;;;;;;;;;;;;;;;;5074357;28;828;-69
2023/04/24 01:06:44;;;;;;;;;;;;;;;;;;5073731;28;1240;-69
2023/04/24 01:09:10;;;;;;;;;;;;;;;;;;5074457;28;907;-69
2023/04/24 01:11:36;;;;;;;;;;;;;;;;;;5073829;28;1070;-68
2023/04/24 01:14:01;;;;;;;;;;;;;;;;;;5090451;28;1166;-69
2023/04/24 01:16:27;;;;;;;;;;;;;;;;;;5073726;28;1517;-69
2023/04/24 01:18:52;;;;;;;;;;;;;;;;;;5073776;28;1969;-69
2023/04/24 01:21:17;;;;;;;;;;;;;;;;;;5075435;28;833;-69
2023/04/24 01:23:43;;;;;;;;;;;;;;;;;;5091127;28;1177;-69
2023/04/24 01:26:09;;;;;;;;;;;;;;;;;;5074679;28;880;-68
2023/04/24 01:28:34;;;;;;;;;;;;;;;;;;5073577;28;861;-68
2023/04/24 01:30:59;;;;;;;;;;;;;;;;;;5074689;28;845;-68
2023/04/24 01:33:25;;;;;;;;;;;;;;;;;;5063551;28;1214;-69
2023/04/24 01:35:50;;;;;;;;;;;;;;;;;;5057156;28;1388;-69
2023/04/24 01:38:16;;;;;;;;;;;;;;;;;;5056008;28;1172;-68
2023/04/24 01:40:41;;;;;;;;;;;;;;;;;;5053821;28;1890;-68
2023/04/24 01:43:06;;;;;;;;;;;;;;;;;;5051726;28;1138;-68
2023/04/24 01:45:32;;;;;;;;;;;;;;;;;;5053625;28;845;-68
2023/04/24 01:47:57;;;;;;;;;;;;;;;;;;5051874;28;1361;-69
2023/04/24 01:50:22;;;;;;;;;;;;;;;;;;5053002;28;901;-69
2023/04/24 01:52:48;;;;;;;;;;;;;;;;;;5053039;28;912;-69
2023/04/24 01:55:13;;;;;;;;;;;;;;;;;;5053117;28;845;-68
2023/04/24 01:57:39;;;;;;;;;;;;;;;;;;5051898;28;840;-69
2023/04/24 02:00:06;;;;;;;;;;;;;;;;;;5051722;28;1913;-69
2023/04/24 02:02:32;;;;;;;;;;;;;;;;;;5051529;28;1302;-69
2023/04/24 02:04:57;;;;;;;;;;;;;;;;;;5068737;28;1202;-68
2023/04/24 02:07:22;;;;;;;;;;;;;;;;;;5051858;28;952;-69
2023/04/24 02:09:48;;;;;;;;;;;;;;;;;;5053066;28;963;-69
2023/04/24 02:12:13;;;;;;;;;;;;;;;;;;5052886;28;896;-69
2023/04/24 02:14:39;;;;;;;;;;;;;;;;;;5052960;28;841;-69
2023/04/24 02:17:04;;;;;;;;;;;;;;;;;;5052697;28;876;-68
2023/04/24 02:19:30;;;;;;;;;;;;;;;;;;5052526;28;1969;-68
2023/04/24 02:21:55;;;;;;;;;;;;;;;;;;5034709;28;1334;-69
2023/04/24 02:24:20;;;;;;;;;;;;;;;;;;5052143;28;899;-69
2023/04/24 02:26:46;;;;;;;;;;;;;;;;;;5051220;28;1290;-69
2023/04/24 02:29:11;;;;;;;;;;;;;;;;;;5034326;28;1227;-68
2023/04/24 02:31:36;;;;;;;;;;;;;;;;;;5051548;28;881;-68
2023/04/24 02:34:01;;;;;;;;;;;;;;;;;;5050965;28;841;-68
2023/04/24 02:36:27;;;;;;;;;;;;;;;;;;5051004;28;959;-69
2023/04/24 02:38:52;;;;;;;;;;;;;;;;;;5052056;28;1975;-68
2023/04/24 02:41:17;;;;;;;;;;;;;;;;;;5051062;28;1263;-68
2023/04/24 02:43:43;;;;;;;;;;;;;;;;;;5051507;28;1258;-69
2023/04/24 02:46:08;;;;;;;;;;;;;;;;;;5035024;28;1299;-68
2023/04/24 02:48:33;;;;;;;;;;;;;;;;;;5052620;28;983;-69
2023/04/24 02:50:59;;;;;;;;;;;;;;;;;;5053159;28;991;-69
2023/04/24 02:53:24;;;;;;;;;;;;;;;;;;5051861;28;1139;-68
2023/04/24 02:55:49;;;;;;;;;;;;;;;;;;5053356;28;885;-69
2023/04/24 02:58:15;;;;;;;;;;;;;;;;;;5052916;28;900;-69
2023/04/24 03:00:41;;;;;;;;;;;;;;;;;;5052072;28;1890;-68
2023/04/24 03:03:06;;;;;;;;;;;;;;;;;;5051622;28;1275;-68
2023/04/24 03:05:32;;;;;;;;;;;;;;;;;;5035297;28;1363;-69
2023/04/24 03:07:57;;;;;;;;;;;;;;;;;;5052901;28;916;-68
2023/04/24 03:10:23;;;;;;;;;;;;;;;;;;5051618;28;856;-68
2023/04/24 03:12:48;;;;;;;;;;;;;;;;;;5052525;28;912;-68
2023/04/24 03:15:13;;;;;;;;;;;;;;;;;;5050951;28;943;-68
2023/04/24 03:17:39;;;;;;;;;;;;;;;;;;5052380;28;817;-69
2023/04/24 03:20:05;;;;;;;;;;;;;;;;;;5051798;28;1910;-69
2023/04/24 03:22:32;;;;;;;;;;;;;;;;;;5050355;28;1297;-69
2023/04/24 03:24:57;;;;;;;;;;;;;;;;;;5051763;28;838;-69
2023/04/24 03:27:23;;;;;;;;;;;;;;;;;;5051726;28;833;-69
2023/04/24 03:29:51;;;;;;;;;;;;;;;;;;5033923;28;1378;-68
2023/04/24 03:32:17;;;;;;;;;;;;;;;;;;5050479;28;1428;-69
2023/04/24 03:34:42;;;;;;;;;;;;;;;;;;5051465;28;1031;-69
2023/04/24 03:37:07;;;;;;;;;;;;;;;;;;5054552;28;1225;-69
2023/04/24 03:39:32;;;;;;;;;;;;;;;;;;5037658;28;1961;-69
2023/04/24 03:41:57;;;;;;;;;;;;;;;;;;5055475;28;984;-69
2023/04/24 03:44:23;;;;;;;;;;;;;;;;;;5055319;28;1200;-68
2023/04/24 03:46:48;;;;;;;;;;;;;;;;;;5055494;28;893;-68
2023/04/24 03:49:13;;;;;;;;;;;;;;;;;;5055670;28;903;-68
2023/04/24 03:51:39;;;;;;;;;;;;;;;;;;5055222;28;841;-68
2023/04/24 03:54:04;;;;;;;;;;;;;;;;;;5054054;28;1213;-68
2023/04/24 03:56:29;;;;;;;;;;;;;;;;;;5055266;28;808;-68
2023/04/24 03:58:55;;;;;;;;;;;;;;;;;;5054660;28;1906;-69
2023/04/24 04:01:20;;;;;;;;;;;;;;;;;;5054468;28;935;-69
2023/04/24 04:03:46;;;;;;;;;;;;;;;;;;5055526;28;809;-68
2023/04/24 04:06:12;;;;;;;;;;;;;;;;;;5053995;28;916;-69
2023/04/24 04:08:38;;;;;;;;;;;;;;;;;;5055720;28;920;-69
2023/04/24 04:11:03;;;;;;;;;;;;;;;;;;5056256;28;916;-68
2023/04/24 04:13:28;;;;;;;;;;;;;;;;;;5054562;28;958;-69
2023/04/24 04:15:53;;;;;;;;;;;;;;;;;;5054002;28;904;-68
2023/04/24 04:18:19;;;;;;;;;;;;;;;;;;5055742;28;841;-69
2023/04/24 04:20:44;;;;;;;;;;;;;;;;;;5055401;28;1902;-68
2023/04/24 04:23:09;;;;;;;;;;;;;;;;;;5054275;28;888;-69
2023/04/24 04:25:35;;;;;;;;;;;;;;;;;;5055995;28;899;-68
2023/04/24 04:28:00;;;;;;;;;;;;;;;;;;5054575;28;908;-68
2023/04/24 04:30:25;;;;;;;;;;;;;;;;;;5037224;28;1437;-68
2023/04/24 04:32:51;;;;;;;;;;;;;;;;;;5054225;28;837;-69
2023/04/24 04:35:16;;;;;;;;;;;;;;;;;;5055550;28;973;-68
2023/04/24 04:37:41;;;;;;;;;;;;;;;;;;5037225;28;1243;-69
2023/04/24 04:40:07;;;;;;;;;;;;;;;;;;5053918;28;1910;-69
2023/04/24 04:42:36;;;;;;;;;;;;;;;;;;5053593;28;1208;-69
2023/04/24 04:45:02;;;;;;;;;;;;;;;;;;5054995;28;1066;-68
2023/04/24 04:47:28;;;;;;;;;;;;;;;;;;5052837;28;1638;-68
2023/04/24 04:49:53;;;;;;;;;;;;;;;;;;5053179;28;825;-68
2023/04/24 04:52:19;;;;;;;;;;;;;;;;;;5054681;28;844;-68
2023/04/24 04:54:44;;;;;;;;;;;;;;;;;;5054063;28;825;-68
2023/04/24 04:57:10;;;;;;;;;;;;;;;;;;5054272;28;1294;-68
2023/04/24 04:59:35;;;;;;;;;;;;;;;;;;5051761;28;1918;-68
2023/04/24 05:02:00;;;;;;;;;;;;;;;;;;5054022;28;1243;-68
2023/04/24 05:04:26;;;;;;;;;;;;;;;;;;5051642;28;1159;-68
2023/04/24 05:06:51;;;;;;;;;;;;;;;;;;5033756;28;1404;-68
2023/04/24 05:09:16;;;;;;;;;;;;;;;;;;5061919;28;1077;-68
2023/04/24 05:11:42;;;;;;;;;;;;;;;;;;5071981;28;1274;-68
2023/04/24 05:14:07;;;;;;;;;;;;;;;;;;5053762;28;1147;-68
2023/04/24 05:16:32;;;;;;;;;;;;;;;;;;5054366;28;1355;-68
2023/04/24 05:18:57;;;;;;;;;;;;;;;;;;5052324;28;1902;-68
2023/04/24 05:21:23;;;;;;;;;;;;;;;;;;5052407;28;908;-68
2023/04/24 05:23:48;;;;;;;;;;;;;;;;;;5053610;28;912;-68
2023/04/24 05:26:14;;;;;;;;;;;;;;;;;;5052136;28;818;-68
2023/04/24 05:28:39;;;;;;;;;;;;;;;;;;5051953;28;845;-68
2023/04/24 05:31:05;;;;;;;;;;;;;;;;;;5053341;28;821;-68
2023/04/24 05:33:30;;;;;;;;;;;;;;;;;;5053037;28;963;-68
2023/04/24 05:35:55;;;;;;;;;;;;;;;;;;5068781;28;1262;-68
2023/04/24 05:38:21;;;;;;;;;;;;;;;;;;5053561;28;821;-68
2023/04/24 05:40:46;;;;;;;;;;;;;;;;;;5051970;28;1953;-68
2023/04/24 05:43:12;;;;;;;;;;;;;;;;;;5053401;28;1074;-68
2023/04/24 05:45:37;;;;;;;;;;;;;;;;;;5053320;28;825;-68
2023/04/24 05:48:03;;;;;;;;;;;;;;;;;;5053399;28;828;-68
2023/04/24 05:50:28;;;;;;;;;;;;;;;;;;5053434;28;907;-68
2023/04/24 05:52:53;;;;;;;;;;;;;;;;;;5053182;28;911;-68
2023/04/24 05:55:19;;;;;;;;;;;;;;;;;;5052586;28;832;-68
2023/04/24 05:57:44;;;;;;;;;;;;;;;;;;5051700;28;1173;-68
2023/04/24 06:00:11;;;;;;;;;;;;;;;;;;5035474;28;1965;-68
2023/04/24 06:02:37;;;;;;;;;;;;;;;;;;5052951;28;845;-68
2023/04/24 06:05:02;;;;;;;;;;;;;;;;;;5051800;28;1178;-68
2023/04/24 06:07:28;;;;;;;;;;;;;;;;;;5053413;28;829;-68
2023/04/24 06:09:53;;;;;;;;;;;;;;;;;;5052425;28;852;-68
2023/04/24 06:12:18;;;;;;;;;;;;;;;;;;5051201;28;1127;-68
2023/04/24 06:14:43;;;;;;;;;;;;;;;;;;5052082;28;1041;-68
2023/04/24 06:17:09;;;;;;;;;;;;;;;;;;5052178;28;877;-68
2023/04/24 06:19:34;;;;;;;;;;;;;;;;;;5052951;28;1867;-68
2023/04/24 06:21:59;;;;;;;;;;;;;;;;;;5051756;28;837;-68
2023/04/24 06:24:28;;;;;;;;;;;;;;;;;;5053037;28;960;-68
2023/04/24 06:26:54;;;;;;;;;;;;;;;;;;5051863;28;1329;-68
2023/04/24 06:29:19;;;;;;;;;;;;;;;;;;5051809;28;829;-68
2023/04/24 06:31:44;;;;;;;;;;;;;;;;;;5052952;28;829;-68
2023/04/24 06:34:10;;;;;;;;;;;;;;;;;;5052373;28;968;-68
2023/04/24 06:36:35;;;;;;;;;;;;;;;;;;5050939;28;920;-68
2023/04/24 06:39:01;;;;;;;;;;;;;;;;;;5050966;28;1948;-68
2023/04/24 06:41:27;;;;;;;;;;;;;;;;;;5050835;28;1391;-68
2023/04/24 06:43:52;;;;;;;;;;;;;;;;;;5051443;28;1207;-68
2023/04/24 06:46:17;;;;;;;;;;;;;;;;;;5050400;28;900;-68
2023/04/24 06:48:43;;;;;;;;;;;;;;;;;;5033775;28;1232;-68
2023/04/24 06:51:09;;;;;;;;;;;;;;;;;;5050715;28;1193;-68
2023/04/24 06:53:34;;;;;;;;;;;;;;;;;;5052418;28;817;-68
2023/04/24 06:55:59;;;;;;;;;;;;;;;;;;5050341;28;1205;-68
2023/04/24 06:58:25;;;;;;;;;;;;;;;;;;5050861;28;1448;-68
2023/04/24 07:00:50;;;;;;;;;;;;;;;;;;5051187;28;1973;-68
2023/04/24 07:03:15;;;;;;;;;;;;;;;;;;5050501;28;1172;-68
2023/04/24 07:05:41;;;;;;;;;;;;;;;;;;5052431;28;983;-68
2023/04/24 07:08:06;;;;;;;;;;;;;;;;;;5051800;28;1085;-68
2023/04/24 07:10:33;;;;;;;;;;;;;;;;;;5049895;28;1191;-68
2023/04/24 07:12:59;;;;;;;;;;;;;;;;;;5051944;28;873;-68
2023/04/24 07:15:24;;;;;;;;;;;;;;;;;;5034351;28;1314;-68
2023/04/24 07:17:49;;;;;;;;;;;;;;;;;;5051842;28;886;-68
2023/04/24 07:20:15;;;;;;;;;;;;;;;;;;5067472;28;1906;-68
2023/04/24 07:22:41;;;;;;;;;;;;;;;;;;5051114;28;1388;-68
2023/04/24 07:25:07;;;;;;;;;;;;;;;;;;5050349;28;1187;-68
2023/04/24 07:27:32;;;;;;;;;;;;;;;;;;5051296;28;1057;-68
2023/04/24 07:29:57;;;;;;;;;;;;;;;;;;5051317;28;888;-69
2023/04/24 07:32:22;;;;;;;;;;;;;;;;;;5050836;28;832;-68
2023/04/24 07:34:48;;;;;;;;;;;;;;;;;;5050475;28;903;-68
2023/04/24 07:37:13;;;;;;;;;;;;;;;;;;5051182;28;1073;-68
2023/04/24 07:39:38;;;;;;;;;;;;;;;;;;5051763;28;1906;-68
2023/04/24 07:42:04;;;;;;;;;;;;;;;;;;5051410;28;841;-68
2023/04/24 07:44:29;;;;;;;;;;;;;;;;;;5051831;28;1069;-68
2023/04/24 07:46:55;;;;;;;;;;;;;;;;;;5050393;28;809;-68
2023/04/24 07:49:21;;;;;;;;;;;;;;;;;;5051445;28;793;-68
2023/04/24 07:51:46;;;;;;;;;;;;;;;;;;5051612;28;982;-68
2023/04/24 07:54:11;;;;;;;;;;;;;;;;;;5051856;28;849;-68
2023/04/24 07:56:38;;;;;;;;;;;;;;;;;;5051963;28;896;-69
2023/04/24 07:59:04;;;;;;;;;;;;;;;;;;5068133;28;1917;-68
2023/04/24 08:01:29;;;;;;;;;;;;;;;;;;5072115;28;895;-69
2023/04/24 08:03:55;;;;;;;;;;;;;;;;;;5070570;28;924;-68
2023/04/24 08:06:20;;;;;;;;;;;;;;;;;;5072460;28;844;-68
2023/04/24 08:08:46;;;;;;;;;;;;;;;;;;5070810;28;817;-67
2023/04/24 08:11:11;;;;;;;;;;;;;;;;;;5071910;28;897;-69
2023/04/24 08:13:36;;;;;;;;;;;;;;;;;;5070358;28;1141;-67
2023/04/24 08:16:01;;;;;;;;;;;;;;;;;;5071268;28;868;-67
2023/04/24 08:18:27;;;;;;;;;;;;;;;;;;5070222;28;919;-69
2023/04/24 08:20:52;;;;;;;;;;;;;;;;;;5072196;28;1906;-67
2023/04/24 08:23:17;;;;;;;;;;;;;;;;;;5073688;28;802;-69
2023/04/24 08:25:43;;;;;;;;;;;;;;;;;;5074096;28;860;-68
2023/04/24 08:28:08;;;;;;;;;;;;;;;;;;5073481;28;1274;-68
2023/04/24 08:30:34;;;;;;;;;;;;;;;;;;5074565;28;915;-68
2023/04/24 08:32:59;;;;;;;;;;;;;;;;;;5073853;28;868;-68
2023/04/24 08:35:24;;;;;;;;;;;;;;;;;;5074189;28;1228;-69
2023/04/24 08:37:50;;;;;;;;;;;;;;;;;;5074364;28;864;-68
2023/04/24 08:40:16;;;;;;;;;;;;;;;;;;5073594;28;1948;-69
2023/04/24 08:42:44;;;;;;;;;;;;;;;;;;5074876;28;1066;-68
2023/04/24 08:45:11;;;;;;;;;;;;;;;;;;5074300;28;1077;-68
2023/04/24 08:47:37;;;;;;;;;;;;;;;;;;5074840;28;905;-68
2023/04/24 08:50:03;;;;;;;;;;;;;;;;;;5074511;28;900;-68
2023/04/24 08:52:29;;;;;;;;;;;;;;;;;;5073518;28;1206;-68
2023/04/24 08:54:54;;;;;;;;;;;;;;;;;;5056637;28;1287;-68
2023/04/24 08:57:20;;;;;;;;;;;;;;;;;;5074658;28;881;-68
2023/04/24 08:59:46;;;;;;;;;;;;;;;;;;5074714;28;1902;-68
2023/04/24 09:02:12;;;;;;;;;;;;;;;;;;5072881;28;1201;-69
2023/04/24 09:04:37;;;;;;;;;;;;;;;;;;5073005;28;1288;-68
2023/04/24 09:07:03;;;;;;;;;;;;;;;;;;5073976;28;907;-68
2023/04/24 09:09:30;;;;;;;;;;;;;;;;;;5073664;28;1231;-68
2023/04/24 09:11:57;;;;;;;;;;;;;;;;;;5053522;28;1152;-68
2023/04/24 09:14:23;;;;;;;;;;;;;;;;;;5052253;28;1195;-68
2023/04/24 09:16:49;;;;;;;;;;;;;;;;;;5053561;28;916;-68
2023/04/24 09:19:14;;;;;;;;;;;;;;;;;;5052178;28;1961;-68
2023/04/24 09:21:41;;;;;;;;;;;;;;;;;;5054037;28;892;-68
2023/04/24 09:24:08;;;;;;;;;;;;;;;;;;5053415;28;1168;-69
2023/04/24 09:26:35;;;;;;;;;;;;;;;;;;5054154;28;1074;-68
2023/04/24 09:29:01;;;;;;;;;;;;;;;;;;5057424;28;1191;-68
2023/04/24 09:31:29;;;;;;;;;;;;;;;;;;5061365;28;1136;-68
2023/04/24 09:33:59;;;;;;;;;;;;;;;;;;5052536;28;1340;-68
2023/04/24 09:36:36;;;;;;;;;;;;;;;;;;5053658;28;1255;-68
2023/04/24 09:39:02;;;;;;;;;;;;;;;;;;5052581;28;1937;-68
2023/04/24 09:41:28;;;;;;;;;;;;;;;;;;5053119;28;1236;-69
2023/04/24 09:43:55;;;;;;;;;;;;;;;;;;5053708;28;1220;-69
2023/04/24 09:46:21;;;;;;;;;;;;;;;;;;5054113;28;860;-69
2023/04/24 09:48:46;;;;;;;;;;;;;;;;;;5054003;28;844;-69
2023/04/24 09:51:12;;;;;;;;;;;;;;;;;;5052370;28;1243;-68
2023/04/24 09:53:39;;;;;;;;;;;;;;;;;;5035643;28;1390;-68
2023/04/24 09:56:08;;;;;;;;;;;;;;;;;;5053297;28;833;-68
2023/04/24 09:58:35;;;;;;;;;;;;;;;;;;5053477;28;884;-68
2023/04/24 10:01:00;;;;;;;;;;;;;;;;;;5053333;28;1906;-68
2023/04/24 10:03:26;;;;;;;;;;;;;;;;;;5054703;28;888;-68
2023/04/24 10:05:52;;;;;;;;;;;;;;;;;;5054181;28;856;-68
2023/04/24 10:08:17;;;;;;;;;;;;;;;;;;5051678;28;1230;-68
2023/04/24 10:10:43;;;;;;;;;;;;;;;;;;5051980;28;995;-70
2023/04/24 10:13:10;;;;;;;;;;;;;;;;;;5051955;28;916;-69
2023/04/24 10:15:36;;;;;;;;;;;;;;;;;;5050878;28;1210;-68
2023/04/24 10:18:01;;;;;;;;;;;;;;;;;;5052558;28;844;-69
2023/04/24 10:20:31;;;;;;;;;;;;;;;;;;5053068;28;1902;-69
2023/04/24 10:22:57;;;;;;;;;;;;;;;;;;5052946;28;856;-68
2023/04/24 10:25:23;;;;;;;;;;;;;;;;;;5052682;28;856;-68
2023/04/24 10:27:49;;;;;;;;;;;;;;;;;;5052823;28;837;-69
2023/04/24 10:30:15;;;;;;;;;;;;;;;;;;5051555;28;1278;-69
2023/04/24 10:32:40;;;;;;;;;;;;;;;;;;5051435;28;1164;-68
2023/04/24 10:35:06;;;;;;;;;;;;;;;;;;5052186;28;923;-68
2023/04/24 10:37:36;;;;;;;;;;;;;;;;;;5034685;28;1211;-68
2023/04/24 10:40:02;;;;;;;;;;;;;;;;;;5052026;28;1936;-68
2023/04/24 10:42:28;;;;;;;;;;;;;;;;;;5051146;28;1413;-68
2023/04/24 10:44:54;;;;;;;;;;;;;;;;;;5052309;28;1188;-68
2023/04/24 10:47:19;;;;;;;;;;;;;;;;;;5050340;28;1258;-68
2023/04/24 10:49:45;;;;;;;;;;;;;;;;;;5050777;28;1295;-68
2023/04/24 10:52:11;;;;;;;;;;;;;;;;;;5050420;28;935;-68
2023/04/24 10:54:40;;;;;;;;;;;;;;;;;;5034105;28;1425;-68
2023/04/24 10:57:17;;;;;;;;;;;;;;;;;;5051881;28;887;-68
2023/04/24 10:59:43;;;;;;;;;;;;;;;;;;5050704;28;1914;-68
2023/04/24 11:02:09;;;;;;;;;;;;;;;;;;5051324;28;829;-68
2023/04/24 11:04:37;;;;;;;;;;;;;;;;;;5051699;28;833;-68
2023/04/24 11:07:03;;;;;;;;;;;;;;;;;;5051602;28;848;-68
2023/04/24 11:09:30;;;;;;;;;;;;;;;;;;5050327;28;1218;-68
2023/04/24 11:12:07;;;;;;;;;;;;;;;;;;5052022;28;832;-68
2023/04/24 11:14:51;;;;;;;;;;;;;;;;;;5050674;28;1190;-68
2023/04/24 11:17:27;;;;;;;;;;;;;;;;;;5050212;28;1210;-68
2023/04/24 11:20:00;;;;;;;;;;;;;;;;;;5051799;28;1906;-68
2023/04/24 11:22:26;;;;;;;;;;;;;;;;;;5050911;28;876;-68
2023/04/24 11:24:53;;;;;;;;;;;;;;;;;;5051706;28;778;-68
2023/04/24 11:27:19;;;;;;;;;;;;;;;;;;5051364;28;893;-67
2023/04/24 11:29:45;;;;;;;;;;;;;;;;;;5050271;28;1290;-67
2023/04/24 11:32:30;;;;;;;;;;;;;;;;;;5050010;28;1198;-67
2023/04/24 11:34:58;;;;;;;;;;;;;;;;;;5050689;28;1277;-68
2023/04/24 11:37:24;;;;;;;;;;;;;;;;;;5049707;28;1366;-67
2023/04/24 11:39:50;;;;;;;;;;;;;;;;;;5051330;28;1959;-68
2023/04/24 11:42:16;;;;;;;;;;;;;;;;;;5032898;28;1227;-68
2023/04/24 11:44:42;;;;;;;;;;;;;;;;;;5033335;28;1229;-68
2023/04/24 11:47:08;;;;;;;;;;;;;;;;;;5050824;28;1087;-69
2023/04/24 11:49:33;;;;;;;;;;;;;;;;;;5049814;28;1206;-69
2023/04/24 11:52:01;;;;;;;;;;;;;;;;;;5050253;28;877;-68
2023/04/24 11:54:27;;;;;;;;;;;;;;;;;;5050121;28;857;-69
2023/04/24 11:56:52;;;;;;;;;;;;;;;;;;5053893;28;900;-69
2023/04/24 11:59:18;;;;;;;;;;;;;;;;;;5036715;28;1912;-69
2023/04/24 12:01:46;;;;;;;;;;;;;;;;;;5054394;28;1189;-68
2023/04/24 12:04:11;;;;;;;;;;;;;;;;;;5053645;28;1215;-68
2023/04/24 12:06:37;;;;;;;;;;;;;;;;;;5055436;28;879;-68
2023/04/24 12:09:02;;;;;;;;;;;;;;;;;;5055081;28;888;-68
2023/04/24 12:11:27;;;;;;;;;;;;;;;;;;5055136;28;837;-69
2023/04/24 12:13:53;;;;;;;;;;;;;;;;;;5070713;28;1265;-69
2023/04/24 12:16:18;;;;;;;;;;;;;;;;;;5054872;28;985;-69
2023/04/24 12:18:45;;;;;;;;;;;;;;;;;;5053406;28;1210;-69
2023/04/24 12:21:17;;;;;;;;;;;;;;;;;;5054396;28;1902;-69
2023/04/24 12:23:44;;;;;;;;;;;;;;;;;;5054599;28;896;-69
2023/04/24 12:26:10;;;;;;;;;;;;;;;;;;5052788;28;1226;-68
2023/04/24 12:28:36;;;;;;;;;;;;;;;;;;5054922;28;884;-68
2023/04/24 12:31:01;;;;;;;;;;;;;;;;;;5054297;28;832;-68
2023/04/24 12:33:26;;;;;;;;;;;;;;;;;;5053884;28;919;-69
2023/04/24 12:35:55;;;;;;;;;;;;;;;;;;5053086;28;1391;-69
2023/04/24 12:38:24;;;;;;;;;;;;;;;;;;5053870;28;805;-69
2023/04/24 12:41:01;;;;;;;;;;;;;;;;;;5054137;28;1894;-69
2023/04/24 12:43:27;;;;;;;;;;;;;;;;;;5052352;28;1223;-69
2023/04/24 12:45:52;;;;;;;;;;;;;;;;;;5053865;28;1239;-69
2023/04/24 12:48:17;;;;;;;;;;;;;;;;;;5069464;28;1309;-69
2023/04/24 12:50:43;;;;;;;;;;;;;;;;;;5052268;28;1328;-69
2023/04/24 12:53:09;;;;;;;;;;;;;;;;;;5052618;28;912;-69
2023/04/24 12:55:34;;;;;;;;;;;;;;;;;;5052568;28;1345;-69
2023/04/24 12:58:00;;;;;;;;;;;;;;;;;;5054327;28;821;-68
2023/04/24 13:00:25;;;;;;;;;;;;;;;;;;5052501;28;1909;-69
2023/04/24 13:02:51;;;;;;;;;;;;;;;;;;5052975;28;1114;-69
2023/04/24 13:05:16;;;;;;;;;;;;;;;;;;5052489;28;1230;-69
2023/04/24 13:07:42;;;;;;;;;;;;;;;;;;5053397;28;898;-69
2023/04/24 13:10:07;;;;;;;;;;;;;;;;;;5054060;28;824;-69
2023/04/24 13:12:33;;;;;;;;;;;;;;;;;;5053806;28;946;-69
2023/04/24 13:14:58;;;;;;;;;;;;;;;;;;5053934;28;863;-68
2023/04/24 13:17:24;;;;;;;;;;;;;;;;;;5054029;28;1001;-69
2023/04/24 13:19:50;;;;;;;;;;;;;;;;;;5053629;28;1902;-69
2023/04/24 13:22:17;;;;;;;;;;;;;;;;;;5036037;28;1223;-68
2023/04/24 13:24:42;;;;;;;;;;;;;;;;;;5053583;28;900;-68
2023/04/24 13:27:08;;;;;;;;;;;;;;;;;;5052786;28;891;-68
2023/04/24 13:29:33;;;;;;;;;;;;;;;;;;5052362;28;892;-68
2023/04/24 13:31:59;;;;;;;;;;;;;;;;;;5035957;28;1204;-68
2023/04/24 13:34:25;;;;;;;;;;;;;;;;;;5053424;28;923;-68
2023/04/24 13:36:51;;;;;;;;;;;;;;;;;;5052474;28;1296;-68
2023/04/24 13:39:16;;;;;;;;;;;;;;;;;;5052269;28;2019;-68
2023/04/24 13:41:42;;;;;;;;;;;;;;;;;;5053700;28;833;-68
2023/04/24 13:44:08;;;;;;;;;;;;;;;;;;5052673;28;1038;-68
2023/04/24 13:46:33;;;;;;;;;;;;;;;;;;5034933;28;1192;-68
2023/04/24 13:48:58;;;;;;;;;;;;;;;;;;5053308;28;810;-68
2023/04/24 13:51:26;;;;;;;;;;;;;;;;;;5052643;28;908;-68
2023/04/24 13:53:52;;;;;;;;;;;;;;;;;;5051870;28;1147;-68
2023/04/24 13:56:17;;;;;;;;;;;;;;;;;;5051439;28;845;-68
2023/04/24 13:58:42;;;;;;;;;;;;;;;;;;5035188;28;1390;-68
2023/04/24 14:01:08;;;;;;;;;;;;;;;;;;5051754;28;1914;-68
2023/04/24 14:03:33;;;;;;;;;;;;;;;;;;5051414;28;836;-68
2023/04/24 14:05:59;;;;;;;;;;;;;;;;;;5051628;28;1138;-68
2023/04/24 14:08:25;;;;;;;;;;;;;;;;;;5067557;28;1410;-68
2023/04/24 14:10:50;;;;;;;;;;;;;;;;;;5051191;28;1245;-68
2023/04/24 14:13:16;;;;;;;;;;;;;;;;;;5052790;28;891;-68
2023/04/24 14:15:41;;;;;;;;;;;;;;;;;;5052638;28;979;-68
2023/04/24 14:18:06;;;;;;;;;;;;;;;;;;5052476;28;1023;-68
2023/04/24 14:20:32;;;;;;;;;;;;;;;;;;5050782;28;1894;-68
2023/04/24 14:23:00;;;;;;;;;;;;;;;;;;5052244;28;817;-68
2023/04/24 14:25:25;;;;;;;;;;;;;;;;;;5067854;28;1365;-68
2023/04/24 14:27:51;;;;;;;;;;;;;;;;;;5052332;28;821;-68
2023/04/24 14:30:16;;;;;;;;;;;;;;;;;;5052318;28;817;-68
2023/04/24 14:32:41;;;;;;;;;;;;;;;;;;5050864;28;1210;-68
2023/04/24 14:35:07;;;;;;;;;;;;;;;;;;5052216;28;922;-68
2023/04/24 14:37:32;;;;;;;;;;;;;;;;;;5052245;28;939;-68
2023/04/24 14:39:58;;;;;;;;;;;;;;;;;;5052323;28;1897;-68
2023/04/24 14:42:23;;;;;;;;;;;;;;;;;;5050765;28;1226;-68
2023/04/24 14:44:48;;;;;;;;;;;;;;;;;;5034187;28;1401;-68
2023/04/24 14:47:14;;;;;;;;;;;;;;;;;;5052463;28;934;-67
2023/04/24 14:49:39;;;;;;;;;;;;;;;;;;5051038;28;1458;-68
2023/04/24 14:52:04;;;;;;;;;;;;;;;;;;5051804;28;901;-68
2023/04/24 14:54:30;;;;;;;;;;;;;;;;;;5051324;28;983;-68
2023/04/24 14:56:58;;;;;;;;;;;;;;;;;;5051096;28;1377;-68
2023/04/24 14:59:24;;;;;;;;;;;;;;;;;;5051236;28;1914;-68
2023/04/24 15:01:50;;;;;;;;;;;;;;;;;;5053161;28;908;-68
2023/04/24 15:04:16;;;;;;;;;;;;;;;;;;5052710;28;809;-68
2023/04/24 15:06:42;;;;;;;;;;;;;;;;;;5051295;28;2007;-68
2023/04/24 15:09:07;;;;;;;;;;;;;;;;;;5052560;28;786;-68
2023/04/24 15:11:32;;;;;;;;;;;;;;;;;;5051219;28;955;-68
2023/04/24 15:13:58;;;;;;;;;;;;;;;;;;5050850;28;956;-68
2023/04/24 15:16:24;;;;;;;;;;;;;;;;;;5052602;28;880;-68
2023/04/24 15:18:49;;;;;;;;;;;;;;;;;;5051798;28;998;-68
2023/04/24 15:21:14;;;;;;;;;;;;;;;;;;5050881;28;1884;-68
2023/04/24 15:23:39;;;;;;;;;;;;;;;;;;5051714;28;868;-68
2023/04/24 15:26:05;;;;;;;;;;;;;;;;;;5051460;28;837;-68
2023/04/24 15:28:30;;;;;;;;;;;;;;;;;;5050156;28;833;-68
2023/04/24 15:30:55;;;;;;;;;;;;;;;;;;5051134;28;1246;-68
2023/04/24 15:33:21;;;;;;;;;;;;;;;;;;5055869;28;821;-68
2023/04/24 15:35:48;;;;;;;;;;;;;;;;;;5054002;28;1201;-68
2023/04/24 15:38:13;;;;;;;;;;;;;;;;;;5055458;28;833;-68
2023/04/24 15:40:38;;;;;;;;;;;;;;;;;;5037344;28;1906;-68
2023/04/24 15:43:04;;;;;;;;;;;;;;;;;;5054179;28;1292;-68
2023/04/24 15:45:30;;;;;;;;;;;;;;;;;;5070362;28;1373;-68
2023/04/24 15:47:55;;;;;;;;;;;;;;;;;;5037454;28;1338;-68
2023/04/24 15:50:21;;;;;;;;;;;;;;;;;;5055561;28;900;-68
2023/04/24 15:52:46;;;;;;;;;;;;;;;;;;5055139;28;837;-68
2023/04/24 15:55:12;;;;;;;;;;;;;;;;;;5055531;28;825;-68
2023/04/24 15:57:38;;;;;;;;;;;;;;;;;;5055035;28;809;-68
2023/04/24 16:00:09;;;;;;;;;;;;;;;;;;5053783;28;1969;-68
2023/04/24 16:02:34;;;;;;;;;;;;;;;;;;5054057;28;1461;-68
2023/04/24 16:04:59;;;;;;;;;;;;;;;;;;5054947;28;892;-68
2023/04/24 16:07:25;;;;;;;;;;;;;;;;;;5036912;28;1394;-68
2023/04/24 16:09:50;;;;;;;;;;;;;;;;;;5053570;28;1454;-68
2023/04/24 16:12:16;;;;;;;;;;;;;;;;;;5053266;28;1222;-68
2023/04/24 16:14:41;;;;;;;;;;;;;;;;;;5055224;28;829;-68
2023/04/24 16:17:06;;;;;;;;;;;;;;;;;;5053613;28;1273;-68
2023/04/24 16:19:34;;;;;;;;;;;;;;;;;;5053369;28;1914;-68
2023/04/24 16:22:00;;;;;;;;;;;;;;;;;;5053912;28;1328;-68
2023/04/24 16:24:26;;;;;;;;;;;;;;;;;;5053388;28;905;-68
2023/04/24 16:26:51;;;;;;;;;;;;;;;;;;5055042;28;836;-68
2023/04/24 16:29:17;;;;;;;;;;;;;;;;;;5054920;28;991;-68
2023/04/24 16:31:42;;;;;;;;;;;;;;;;;;5055020;28;896;-68
2023/04/24 16:34:07;;;;;;;;;;;;;;;;;;5054798;28;952;-68
2023/04/24 16:36:33;;;;;;;;;;;;;;;;;;5053404;28;939;-68
2023/04/24 16:38:59;;;;;;;;;;;;;;;;;;5053654;28;1222;-68
2023/04/24 16:41:25;;;;;;;;;;;;;;;;;;5053213;28;972;-68
2023/04/24 16:43:50;;;;;;;;;;;;;;;;;;5053318;28;1281;-69
2023/04/24 16:46:16;;;;;;;;;;;;;;;;;;5053769;28;943;-68
2023/04/24 16:48:41;;;;;;;;;;;;;;;;;;5053538;28;1217;-68
2023/04/24 16:51:06;;;;;;;;;;;;;;;;;;5054955;28;829;-68
2023/04/24 16:53:31;;;;;;;;;;;;;;;;;;5053321;28;746;-68
2023/04/24 16:55:57;;;;;;;;;;;;;;;;;;5052948;28;1417;-69
2023/04/24 16:58:22;;;;;;;;;;;;;;;;;;5053036;28;1284;-68
2023/04/24 17:00:47;;;;;;;;;;;;;;;;;;5054471;28;1969;-68